Weather at Lokok Airstrip

Public forecast

Using degrees Celsius for public forecast. Weather courtesy of forecast.io.

Closest aviation weather report (METAR) to Lokok Airstrip

Closest report is Kuching International Airport, 33.0 nm (61.1 km) NNE. Retrieved 2021/10/16 18:00 UTC (39 minutes ago):

WBGG 161800Z 00000KT 8000 FEW001 SCT020 24/24 Q1009 NOSIG

Closest aviation forecast (TAF) to Lokok Airstrip

Closest forecast is Kuching International Airport, 33.0 nm (61.1 km) NNE. Retrieved 2021/10/16 18:12 UTC (27 minutes ago):

TAF WBGG 161700Z 1618/1718 VRB03KT 7000 -RA FEW005 SCT020 BECMG 1622/1700 9999 NSW FEW020 TEMPO 1706/1710 34010KT 3000 TSRA FEW015CB SCT018